Time;durP1;ratioP1;P1;durP2;ratioP2;P2;SDS_P1;SDS_P2;PMS_P1;PMS_P2;Temp;Humidity;BMP_temperature;BMP_pressure;BME280_temperature;BME280_humidity;BME280_pressure;Samples;Min_cycle;Max_cycle;Signal;HPM_P1;HPM_P2
2023/01/19 00:01:07;;;;;;;;;;;;;;;;;;5048932;28;19982;-63
2023/01/19 00:03:33;;;;;;;;;;;;;;;;;;5047954;28;20365;-63
2023/01/19 00:05:59;;;;;;;;;;;;;;;;;;5049096;28;19917;-64
2023/01/19 00:08:25;;;;;;;;;;;;;;;;;;5049670;28;20285;-63
2023/01/19 00:10:51;;;;;;;;;;;;;;;;;;5048885;28;19954;-64
2023/01/19 00:13:16;;;;;;;;;;;;;;;;;;5048749;28;20538;-63
2023/01/19 00:15:42;;;;;;;;;;;;;;;;;;5049162;28;19916;-64
2023/01/19 00:18:08;;;;;;;;;;;;;;;;;;5049575;28;19919;-63
2023/01/19 00:20:34;;;;;;;;;;;;;;;;;;5048916;28;19919;-65
2023/01/19 00:23:00;;;;;;;;;;;;;;;;;;5049053;28;19920;-63
2023/01/19 00:25:26;;;;;;;;;;;;;;;;;;5050446;28;19913;-63
2023/01/19 00:27:52;;;;;;;;;;;;;;;;;;5053169;28;19913;-64
2023/01/19 00:30:18;;;;;;;;;;;;;;;;;;5052740;28;19913;-62
2023/01/19 00:32:44;;;;;;;;;;;;;;;;;;5051342;28;20402;-63
2023/01/19 00:35:10;;;;;;;;;;;;;;;;;;5046136;28;20016;-63
2023/01/19 00:37:36;;;;;;;;;;;;;;;;;;5053132;28;19999;-62
2023/01/19 00:40:01;;;;;;;;;;;;;;;;;;5052241;28;20297;-63
2023/01/19 00:42:40;;;;;;;;;;;;;;;;;;5052489;28;19916;-63
2023/01/19 00:45:05;;;;;;;;;;;;;;;;;;5052321;28;20030;-61
2023/01/19 00:47:32;;;;;;;;;;;;;;;;;;5052575;28;20429;-63
2023/01/19 00:49:58;;;;;;;;;;;;;;;;;;5052381;28;19909;-62
2023/01/19 00:52:23;;;;;;;;;;;;;;;;;;5052618;28;19919;-63
2023/01/19 00:54:49;;;;;;;;;;;;;;;;;;5051990;28;19939;-62
2023/01/19 00:57:16;;;;;;;;;;;;;;;;;;5052241;28;19944;-63
2023/01/19 00:59:42;;;;;;;;;;;;;;;;;;5052838;28;19955;-63
2023/01/19 01:02:08;;;;;;;;;;;;;;;;;;5052755;28;19935;-61
2023/01/19 01:04:33;;;;;;;;;;;;;;;;;;5052395;28;20369;-63
2023/01/19 01:06:59;;;;;;;;;;;;;;;;;;5052177;28;19935;-62
2023/01/19 01:09:26;;;;;;;;;;;;;;;;;;5052216;28;19963;-62
2023/01/19 01:11:52;;;;;;;;;;;;;;;;;;5052154;28;19913;-63
2023/01/19 01:14:18;;;;;;;;;;;;;;;;;;5052438;28;19916;-62
2023/01/19 01:16:44;;;;;;;;;;;;;;;;;;5051832;28;19916;-62
2023/01/19 01:19:10;;;;;;;;;;;;;;;;;;5052073;28;19909;-62
2023/01/19 01:21:36;;;;;;;;;;;;;;;;;;5051882;28;19909;-62
2023/01/19 01:24:02;;;;;;;;;;;;;;;;;;5051487;28;20388;-62
2023/01/19 01:26:27;;;;;;;;;;;;;;;;;;5052053;28;19931;-61
2023/01/19 01:28:53;;;;;;;;;;;;;;;;;;5051892;28;20008;-63
2023/01/19 01:31:19;;;;;;;;;;;;;;;;;;5051812;28;19909;-62
2023/01/19 01:33:45;;;;;;;;;;;;;;;;;;5051925;28;19932;-62
2023/01/19 01:36:11;;;;;;;;;;;;;;;;;;5050277;28;19946;-62
2023/01/19 01:38:37;;;;;;;;;;;;;;;;;;5050873;28;19912;-63
2023/01/19 01:41:03;;;;;;;;;;;;;;;;;;5051472;28;19912;-62
2023/01/19 01:43:29;;;;;;;;;;;;;;;;;;5051581;28;20439;-62
2023/01/19 01:45:55;;;;;;;;;;;;;;;;;;5051366;28;19921;-63
2023/01/19 01:48:26;;;;;;;;;;;;;;;;;;5051754;28;19909;-63
2023/01/19 01:53:37;;;;;;;;;;;;;;;;;;5051436;28;19932;-62
2023/01/19 01:56:03;;;;;;;;;;;;;;;;;;5051213;28;20654;-62
2023/01/19 01:58:29;;;;;;;;;;;;;;;;;;5051262;28;19917;-63
2023/01/19 02:03:39;;;;;;;;;;;;;;;;;;5051028;28;19935;-62
2023/01/19 02:06:06;;;;;;;;;;;;;;;;;;5050630;28;20277;-63
2023/01/19 02:14:01;;;;;;;;;;;;;;;;;;5046725;28;19939;-63
2023/01/19 02:16:28;;;;;;;;;;;;;;;;;;5050934;28;20324;-63
2023/01/19 02:18:54;;;;;;;;;;;;;;;;;;5050699;28;19913;-63
2023/01/19 02:21:20;;;;;;;;;;;;;;;;;;5050443;28;20282;-63
2023/01/19 02:23:46;;;;;;;;;;;;;;;;;;5050797;28;19909;-62
2023/01/19 02:26:12;;;;;;;;;;;;;;;;;;5050230;28;20374;-62
2023/01/19 02:28:38;;;;;;;;;;;;;;;;;;5050395;28;20674;-63
2023/01/19 02:31:05;;;;;;;;;;;;;;;;;;5050919;28;20270;-62
2023/01/19 02:33:30;;;;;;;;;;;;;;;;;;5050737;28;19920;-63
2023/01/19 02:35:56;;;;;;;;;;;;;;;;;;5049916;28;19916;-63
2023/01/19 02:38:23;;;;;;;;;;;;;;;;;;5050282;28;20442;-63
2023/01/19 02:40:48;;;;;;;;;;;;;;;;;;5050279;28;19916;-63
2023/01/19 02:43:14;;;;;;;;;;;;;;;;;;5049854;28;19909;-62
2023/01/19 02:45:40;;;;;;;;;;;;;;;;;;5050155;28;19990;-62
2023/01/19 02:48:06;;;;;;;;;;;;;;;;;;5049861;28;20395;-62
2023/01/19 02:50:32;;;;;;;;;;;;;;;;;;5049353;28;19924;-63
2023/01/19 02:52:58;;;;;;;;;;;;;;;;;;5049810;28;19995;-62
2023/01/19 02:55:24;;;;;;;;;;;;;;;;;;5049722;28;19921;-63
2023/01/19 02:57:50;;;;;;;;;;;;;;;;;;5049768;28;19908;-63
2023/01/19 03:00:15;;;;;;;;;;;;;;;;;;5050088;28;19939;-62
2023/01/19 03:02:42;;;;;;;;;;;;;;;;;;5049309;28;20353;-63
2023/01/19 03:05:08;;;;;;;;;;;;;;;;;;5049423;28;19919;-62
2023/01/19 03:07:34;;;;;;;;;;;;;;;;;;5049679;28;19908;-62
2023/01/19 03:10:00;;;;;;;;;;;;;;;;;;5049974;28;19924;-62
2023/01/19 03:12:26;;;;;;;;;;;;;;;;;;5049410;28;19908;-62
2023/01/19 03:14:52;;;;;;;;;;;;;;;;;;5049245;28;20393;-62
2023/01/19 03:17:18;;;;;;;;;;;;;;;;;;5049694;28;19959;-62
2023/01/19 03:19:43;;;;;;;;;;;;;;;;;;5049078;28;20008;-62
2023/01/19 03:22:09;;;;;;;;;;;;;;;;;;5049142;28;20007;-63
2023/01/19 03:24:35;;;;;;;;;;;;;;;;;;5049330;28;19912;-62
2023/01/19 03:27:01;;;;;;;;;;;;;;;;;;5049325;28;19908;-64
2023/01/19 03:29:29;;;;;;;;;;;;;;;;;;5048519;28;21323;-62
2023/01/19 03:31:55;;;;;;;;;;;;;;;;;;5049297;28;19909;-63
2023/01/19 03:34:22;;;;;;;;;;;;;;;;;;5049079;28;19913;-63
2023/01/19 03:36:49;;;;;;;;;;;;;;;;;;5049110;28;20445;-62
2023/01/19 03:39:15;;;;;;;;;;;;;;;;;;5049202;28;19909;-63
2023/01/19 03:41:41;;;;;;;;;;;;;;;;;;5049234;28;19912;-63
2023/01/19 03:44:07;;;;;;;;;;;;;;;;;;5049348;28;19943;-62
2023/01/19 03:46:33;;;;;;;;;;;;;;;;;;5049482;28;20477;-62
2023/01/19 03:48:59;;;;;;;;;;;;;;;;;;5048769;28;19913;-63
2023/01/19 03:51:24;;;;;;;;;;;;;;;;;;5048911;28;20373;-62
2023/01/19 03:53:50;;;;;;;;;;;;;;;;;;5049617;28;20007;-62
2023/01/19 03:56:16;;;;;;;;;;;;;;;;;;5048849;28;20635;-63
2023/01/19 03:58:42;;;;;;;;;;;;;;;;;;5048770;28;19963;-62
2023/01/19 04:01:08;;;;;;;;;;;;;;;;;;5048512;28;19909;-63
2023/01/19 04:03:34;;;;;;;;;;;;;;;;;;5048704;28;19916;-63
2023/01/19 04:06:00;;;;;;;;;;;;;;;;;;5048732;28;20338;-63
2023/01/19 04:08:26;;;;;;;;;;;;;;;;;;5047265;28;19920;-62
2023/01/19 04:10:52;;;;;;;;;;;;;;;;;;5048855;28;20047;-62
2023/01/19 04:13:18;;;;;;;;;;;;;;;;;;5048554;28;20918;-63
2023/01/19 04:15:44;;;;;;;;;;;;;;;;;;5048468;28;19917;-63
2023/01/19 04:18:10;;;;;;;;;;;;;;;;;;5049009;28;19961;-62
2023/01/19 04:20:36;;;;;;;;;;;;;;;;;;5048496;28;20365;-63
2023/01/19 04:23:02;;;;;;;;;;;;;;;;;;5048821;28;19974;-61
2023/01/19 04:25:28;;;;;;;;;;;;;;;;;;5048381;28;19908;-63
2023/01/19 04:27:54;;;;;;;;;;;;;;;;;;5048379;28;20019;-63
2023/01/19 04:30:21;;;;;;;;;;;;;;;;;;5048906;28;19944;-64
2023/01/19 04:32:47;;;;;;;;;;;;;;;;;;5048238;28;19928;-62
2023/01/19 04:35:13;;;;;;;;;;;;;;;;;;5048911;28;19917;-62
2023/01/19 04:37:39;;;;;;;;;;;;;;;;;;5048527;28;19909;-62
2023/01/19 04:40:05;;;;;;;;;;;;;;;;;;5048788;28;19909;-62
2023/01/19 04:42:31;;;;;;;;;;;;;;;;;;5047130;28;19916;-62
2023/01/19 04:44:57;;;;;;;;;;;;;;;;;;5048808;28;19925;-62
2023/01/19 04:47:22;;;;;;;;;;;;;;;;;;5048261;28;19968;-63
2023/01/19 04:49:48;;;;;;;;;;;;;;;;;;5048960;28;19944;-63
2023/01/19 04:52:14;;;;;;;;;;;;;;;;;;5048606;28;19916;-63
2023/01/19 04:54:40;;;;;;;;;;;;;;;;;;5048350;28;19913;-62
2023/01/19 04:57:06;;;;;;;;;;;;;;;;;;5048094;28;19982;-63
2023/01/19 04:59:32;;;;;;;;;;;;;;;;;;5048087;28;19923;-62
2023/01/19 05:01:58;;;;;;;;;;;;;;;;;;5048910;28;19913;-62
2023/01/19 05:04:24;;;;;;;;;;;;;;;;;;5048027;28;20395;-62
2023/01/19 05:06:50;;;;;;;;;;;;;;;;;;5048152;28;19913;-62
2023/01/19 05:09:16;;;;;;;;;;;;;;;;;;5048770;28;19912;-61
2023/01/19 05:11:42;;;;;;;;;;;;;;;;;;5050978;28;19913;-62
2023/01/19 05:14:08;;;;;;;;;;;;;;;;;;5051493;28;19956;-62
2023/01/19 05:16:34;;;;;;;;;;;;;;;;;;5051604;28;20419;-64
2023/01/19 05:19:00;;;;;;;;;;;;;;;;;;5051658;28;19913;-61
2023/01/19 05:21:27;;;;;;;;;;;;;;;;;;5052107;28;19915;-62
2023/01/19 05:23:53;;;;;;;;;;;;;;;;;;5051642;28;19930;-61
2023/01/19 05:26:18;;;;;;;;;;;;;;;;;;5051646;28;20438;-62
2023/01/19 05:28:44;;;;;;;;;;;;;;;;;;5050884;28;19913;-62
2023/01/19 05:31:10;;;;;;;;;;;;;;;;;;5051769;28;20007;-62
2023/01/19 05:33:36;;;;;;;;;;;;;;;;;;5051708;28;19908;-62
2023/01/19 05:36:03;;;;;;;;;;;;;;;;;;5051142;28;19921;-61
2023/01/19 05:38:29;;;;;;;;;;;;;;;;;;5051378;28;19924;-62
2023/01/19 05:40:54;;;;;;;;;;;;;;;;;;5051526;28;19912;-62
2023/01/19 05:43:20;;;;;;;;;;;;;;;;;;5051080;28;19913;-61
2023/01/19 05:45:46;;;;;;;;;;;;;;;;;;5050971;28;19967;-61
2023/01/19 05:48:12;;;;;;;;;;;;;;;;;;5051130;28;19935;-62
2023/01/19 05:50:38;;;;;;;;;;;;;;;;;;5051372;28;19909;-62
2023/01/19 05:53:04;;;;;;;;;;;;;;;;;;5051055;28;19908;-62
2023/01/19 05:55:31;;;;;;;;;;;;;;;;;;5051120;28;20062;-62
2023/01/19 05:57:56;;;;;;;;;;;;;;;;;;5044517;28;19935;-62
2023/01/19 06:00:23;;;;;;;;;;;;;;;;;;5051279;28;20401;-62
2023/01/19 06:02:49;;;;;;;;;;;;;;;;;;5050980;28;19944;-62
2023/01/19 06:05:15;;;;;;;;;;;;;;;;;;5050786;28;19912;-63
2023/01/19 06:07:41;;;;;;;;;;;;;;;;;;5051082;28;20407;-63
2023/01/19 06:10:07;;;;;;;;;;;;;;;;;;5051030;28;19919;-63
2023/01/19 06:12:33;;;;;;;;;;;;;;;;;;5050790;28;19936;-64
2023/01/19 06:14:59;;;;;;;;;;;;;;;;;;5051043;28;19917;-63
2023/01/19 06:17:25;;;;;;;;;;;;;;;;;;5050459;28;19916;-62
2023/01/19 06:19:51;;;;;;;;;;;;;;;;;;5050575;28;19913;-63
2023/01/19 06:22:17;;;;;;;;;;;;;;;;;;5049771;28;19987;-63
2023/01/19 06:24:42;;;;;;;;;;;;;;;;;;5050967;28;19916;-61
2023/01/19 06:27:10;;;;;;;;;;;;;;;;;;5049837;28;19913;-61
2023/01/19 06:29:36;;;;;;;;;;;;;;;;;;5050356;28;20297;-61
2023/01/19 06:32:02;;;;;;;;;;;;;;;;;;5050987;28;19921;-63
2023/01/19 06:34:27;;;;;;;;;;;;;;;;;;5050210;28;20423;-63
2023/01/19 06:36:53;;;;;;;;;;;;;;;;;;5050244;28;19964;-63
2023/01/19 06:39:19;;;;;;;;;;;;;;;;;;5050317;28;19909;-63
2023/01/19 06:41:45;;;;;;;;;;;;;;;;;;5050227;28;20467;-63
2023/01/19 06:44:11;;;;;;;;;;;;;;;;;;5050353;28;19917;-62
2023/01/19 06:46:37;;;;;;;;;;;;;;;;;;5049763;28;19916;-62
2023/01/19 06:49:03;;;;;;;;;;;;;;;;;;5049995;28;19944;-61
2023/01/19 06:51:29;;;;;;;;;;;;;;;;;;5050006;28;19913;-63
2023/01/19 06:53:55;;;;;;;;;;;;;;;;;;5049826;28;20312;-63
2023/01/19 06:56:21;;;;;;;;;;;;;;;;;;5049652;28;19917;-63
2023/01/19 06:58:47;;;;;;;;;;;;;;;;;;5049264;28;19909;-64
2023/01/19 07:01:13;;;;;;;;;;;;;;;;;;5049389;28;19912;-63
2023/01/19 07:03:38;;;;;;;;;;;;;;;;;;5043093;28;19966;-63
2023/01/19 07:06:07;;;;;;;;;;;;;;;;;;5049412;28;19935;-63
2023/01/19 07:08:33;;;;;;;;;;;;;;;;;;5049142;28;19917;-63
2023/01/19 07:11:00;;;;;;;;;;;;;;;;;;5048786;28;20004;-62
2023/01/19 07:13:25;;;;;;;;;;;;;;;;;;5049540;28;20337;-62
2023/01/19 07:15:51;;;;;;;;;;;;;;;;;;5048813;28;19978;-62
2023/01/19 07:18:17;;;;;;;;;;;;;;;;;;5049275;28;19916;-61
2023/01/19 07:20:45;;;;;;;;;;;;;;;;;;5049124;28;20370;-62
2023/01/19 07:23:12;;;;;;;;;;;;;;;;;;5049196;28;19919;-62
2023/01/19 07:25:38;;;;;;;;;;;;;;;;;;5049227;28;20301;-62
2023/01/19 07:28:04;;;;;;;;;;;;;;;;;;5048974;28;19913;-62
2023/01/19 07:30:30;;;;;;;;;;;;;;;;;;5049021;28;19913;-62
2023/01/19 07:32:56;;;;;;;;;;;;;;;;;;5049047;28;20266;-61
2023/01/19 07:35:22;;;;;;;;;;;;;;;;;;5049076;28;19925;-62
2023/01/19 07:37:48;;;;;;;;;;;;;;;;;;5048912;28;20300;-62
2023/01/19 07:40:14;;;;;;;;;;;;;;;;;;5048539;28;19909;-61
2023/01/19 07:42:40;;;;;;;;;;;;;;;;;;5048636;28;19916;-61
2023/01/19 07:45:05;;;;;;;;;;;;;;;;;;5048157;28;19978;-63
2023/01/19 07:47:31;;;;;;;;;;;;;;;;;;5048614;28;19913;-62
2023/01/19 07:49:57;;;;;;;;;;;;;;;;;;5048329;28;19913;-61
2023/01/19 07:52:23;;;;;;;;;;;;;;;;;;5048363;28;19966;-62
2023/01/19 07:54:49;;;;;;;;;;;;;;;;;;5048412;28;19917;-63
2023/01/19 07:57:15;;;;;;;;;;;;;;;;;;5047322;28;19916;-62
2023/01/19 07:59:41;;;;;;;;;;;;;;;;;;5048019;28;19978;-61
2023/01/19 08:02:07;;;;;;;;;;;;;;;;;;5040515;28;20426;-62
2023/01/19 08:04:33;;;;;;;;;;;;;;;;;;5048998;28;20057;-64
2023/01/19 08:06:59;;;;;;;;;;;;;;;;;;5046326;28;19917;-63
2023/01/19 08:09:25;;;;;;;;;;;;;;;;;;5047723;28;19908;-67
2023/01/19 08:11:51;;;;;;;;;;;;;;;;;;5047939;28;19920;-65
2023/01/19 08:14:17;;;;;;;;;;;;;;;;;;5032884;28;19916;-65
2023/01/19 08:16:43;;;;;;;;;;;;;;;;;;5048257;28;19921;-65
2023/01/19 08:19:09;;;;;;;;;;;;;;;;;;5048895;28;20365;-65
2023/01/19 08:21:37;;;;;;;;;;;;;;;;;;5048330;28;19998;-67
2023/01/19 08:24:03;;;;;;;;;;;;;;;;;;5048359;28;19913;-66
2023/01/19 08:26:29;;;;;;;;;;;;;;;;;;5048158;28;19916;-64
2023/01/19 08:28:55;;;;;;;;;;;;;;;;;;5047890;28;19959;-65
2023/01/19 08:31:21;;;;;;;;;;;;;;;;;;5048345;28;19909;-64
2023/01/19 08:33:47;;;;;;;;;;;;;;;;;;5048726;28;19916;-63
2023/01/19 08:36:13;;;;;;;;;;;;;;;;;;5048369;28;19920;-64
2023/01/19 08:38:42;;;;;;;;;;;;;;;;;;5042342;28;19939;-63
2023/01/19 08:41:08;;;;;;;;;;;;;;;;;;5042543;28;19924;-64
2023/01/19 08:43:34;;;;;;;;;;;;;;;;;;5035506;28;19921;-63
2023/01/19 08:46:00;;;;;;;;;;;;;;;;;;5039139;28;20457;-64
2023/01/19 08:48:25;;;;;;;;;;;;;;;;;;5040098;28;19917;-59
2023/01/19 08:50:51;;;;;;;;;;;;;;;;;;5040142;28;19913;-64
2023/01/19 08:53:19;;;;;;;;;;;;;;;;;;5039042;28;19913;-62
2023/01/19 08:55:44;;;;;;;;;;;;;;;;;;5039041;28;19924;-62
2023/01/19 08:58:10;;;;;;;;;;;;;;;;;;5041840;28;19944;-65
2023/01/19 09:00:36;;;;;;;;;;;;;;;;;;5044816;28;19952;-64
2023/01/19 09:03:02;;;;;;;;;;;;;;;;;;5044556;28;20308;-64
2023/01/19 09:05:30;;;;;;;;;;;;;;;;;;5037667;28;19924;-63
2023/01/19 09:07:56;;;;;;;;;;;;;;;;;;5042528;28;19917;-64
2023/01/19 09:10:22;;;;;;;;;;;;;;;;;;5038227;28;19924;-64
2023/01/19 09:12:49;;;;;;;;;;;;;;;;;;5042799;28;20373;-61
2023/01/19 09:15:15;;;;;;;;;;;;;;;;;;5034877;28;19951;-64
2023/01/19 09:17:41;;;;;;;;;;;;;;;;;;5040211;28;19913;-66
2023/01/19 09:20:07;;;;;;;;;;;;;;;;;;5035468;28;19917;-64
2023/01/19 09:22:33;;;;;;;;;;;;;;;;;;5040580;28;20707;-64
2023/01/19 09:24:59;;;;;;;;;;;;;;;;;;5042652;28;19913;-63
2023/01/19 09:27:25;;;;;;;;;;;;;;;;;;5041609;28;19944;-62
2023/01/19 09:29:51;;;;;;;;;;;;;;;;;;5038643;28;19917;-63
2023/01/19 09:32:17;;;;;;;;;;;;;;;;;;5039527;28;19917;-63
2023/01/19 09:34:43;;;;;;;;;;;;;;;;;;5041676;28;19917;-64
2023/01/19 09:37:09;;;;;;;;;;;;;;;;;;5037053;28;20337;-63
2023/01/19 09:39:35;;;;;;;;;;;;;;;;;;5040711;28;19920;-63
2023/01/19 09:42:01;;;;;;;;;;;;;;;;;;5035527;28;19917;-64
2023/01/19 09:44:27;;;;;;;;;;;;;;;;;;5040323;28;20850;-59
2023/01/19 09:46:52;;;;;;;;;;;;;;;;;;5039654;28;19959;-63
2023/01/19 09:49:18;;;;;;;;;;;;;;;;;;5044261;28;19956;-61
2023/01/19 09:51:44;;;;;;;;;;;;;;;;;;5035643;28;19913;-65
2023/01/19 09:54:11;;;;;;;;;;;;;;;;;;5039648;28;20488;-63
2023/01/19 09:56:37;;;;;;;;;;;;;;;;;;5037558;28;19920;-63
2023/01/19 09:59:03;;;;;;;;;;;;;;;;;;5040590;28;19935;-63
2023/01/19 10:01:29;;;;;;;;;;;;;;;;;;5035280;28;19916;-63
2023/01/19 10:03:55;;;;;;;;;;;;;;;;;;5039369;28;19917;-63
2023/01/19 10:06:21;;;;;;;;;;;;;;;;;;5037833;28;19912;-64
2023/01/19 10:08:47;;;;;;;;;;;;;;;;;;5037938;28;19996;-62
2023/01/19 10:11:13;;;;;;;;;;;;;;;;;;5039264;28;19996;-64
2023/01/19 10:13:39;;;;;;;;;;;;;;;;;;5039746;28;19948;-63
2023/01/19 10:16:05;;;;;;;;;;;;;;;;;;5037248;28;19959;-63
2023/01/19 10:18:35;;;;;;;;;;;;;;;;;;5035969;28;19917;-62
2023/01/19 10:21:01;;;;;;;;;;;;;;;;;;5042582;28;19917;-62
2023/01/19 10:23:27;;;;;;;;;;;;;;;;;;5035266;28;19940;-63
2023/01/19 10:25:53;;;;;;;;;;;;;;;;;;5056130;28;20595;-64
2023/01/19 10:28:19;;;;;;;;;;;;;;;;;;5034006;28;19917;-63
2023/01/19 10:30:45;;;;;;;;;;;;;;;;;;5042328;28;20063;-63
2023/01/19 10:33:11;;;;;;;;;;;;;;;;;;5036154;28;19913;-64
2023/01/19 10:35:37;;;;;;;;;;;;;;;;;;5042184;28;19928;-63
2023/01/19 10:38:03;;;;;;;;;;;;;;;;;;5034049;28;19919;-62
2023/01/19 10:40:28;;;;;;;;;;;;;;;;;;5039154;28;20382;-65
2023/01/19 10:42:54;;;;;;;;;;;;;;;;;;5038110;28;20053;-64
2023/01/19 10:45:20;;;;;;;;;;;;;;;;;;5056135;28;19942;-61
2023/01/19 10:47:46;;;;;;;;;;;;;;;;;;5039551;28;19960;-65
2023/01/19 10:50:12;;;;;;;;;;;;;;;;;;5042693;28;20371;-63
2023/01/19 10:52:38;;;;;;;;;;;;;;;;;;5042967;28;19916;-59
2023/01/19 10:55:04;;;;;;;;;;;;;;;;;;5036665;28;19925;-65
2023/01/19 10:57:30;;;;;;;;;;;;;;;;;;5039976;28;19969;-64
2023/01/19 10:59:56;;;;;;;;;;;;;;;;;;5034240;28;19948;-64
2023/01/19 11:02:25;;;;;;;;;;;;;;;;;;5039379;28;19917;-64
2023/01/19 11:04:51;;;;;;;;;;;;;;;;;;5041161;28;20015;-64
2023/01/19 11:07:17;;;;;;;;;;;;;;;;;;5040314;28;19974;-64
2023/01/19 11:09:43;;;;;;;;;;;;;;;;;;5033764;28;19920;-66
2023/01/19 11:12:09;;;;;;;;;;;;;;;;;;5040792;28;19913;-65
2023/01/19 11:14:35;;;;;;;;;;;;;;;;;;5036814;28;20381;-61
2023/01/19 11:17:01;;;;;;;;;;;;;;;;;;5040277;28;20015;-62
2023/01/19 11:19:27;;;;;;;;;;;;;;;;;;5033104;28;19916;-62
2023/01/19 11:21:53;;;;;;;;;;;;;;;;;;5038240;28;19924;-61
2023/01/19 11:24:18;;;;;;;;;;;;;;;;;;5033995;28;19924;-66
2023/01/19 11:26:46;;;;;;;;;;;;;;;;;;5038897;28;20385;-65
2023/01/19 11:29:12;;;;;;;;;;;;;;;;;;5037876;28;19921;-64
2023/01/19 11:31:38;;;;;;;;;;;;;;;;;;5038172;28;19913;-65
2023/01/19 11:34:04;;;;;;;;;;;;;;;;;;5038688;28;19916;-64
2023/01/19 11:36:30;;;;;;;;;;;;;;;;;;5035010;28;19998;-62
2023/01/19 11:38:56;;;;;;;;;;;;;;;;;;5039183;28;19984;-62
2023/01/19 11:41:22;;;;;;;;;;;;;;;;;;5033924;28;19951;-64
2023/01/19 11:43:48;;;;;;;;;;;;;;;;;;5039137;28;20563;-62
2023/01/19 11:46:14;;;;;;;;;;;;;;;;;;5031569;28;19921;-65
2023/01/19 11:48:40;;;;;;;;;;;;;;;;;;5039889;28;19916;-65
2023/01/19 11:51:07;;;;;;;;;;;;;;;;;;5037922;28;19917;-65
2023/01/19 11:53:33;;;;;;;;;;;;;;;;;;5040923;28;19920;-65
2023/01/19 11:55:59;;;;;;;;;;;;;;;;;;5033440;28;20252;-65
2023/01/19 11:58:25;;;;;;;;;;;;;;;;;;5037701;28;19917;-65
2023/01/19 12:00:50;;;;;;;;;;;;;;;;;;5036235;28;19925;-65
2023/01/19 12:03:16;;;;;;;;;;;;;;;;;;5038503;28;19949;-64
2023/01/19 12:05:42;;;;;;;;;;;;;;;;;;5034241;28;19927;-62
2023/01/19 12:08:08;;;;;;;;;;;;;;;;;;5035952;28;19924;-64
2023/01/19 12:10:35;;;;;;;;;;;;;;;;;;5034640;28;19912;-63
2023/01/19 12:13:01;;;;;;;;;;;;;;;;;;5035535;28;19932;-61
2023/01/19 12:15:26;;;;;;;;;;;;;;;;;;5036955;28;19970;-63
2023/01/19 12:17:52;;;;;;;;;;;;;;;;;;5039230;28;19921;-64
2023/01/19 12:20:18;;;;;;;;;;;;;;;;;;5036862;28;19917;-63
2023/01/19 12:22:48;;;;;;;;;;;;;;;;;;5036903;28;19944;-62
2023/01/19 12:25:14;;;;;;;;;;;;;;;;;;5042844;28;19917;-62
2023/01/19 12:27:40;;;;;;;;;;;;;;;;;;5038984;28;19916;-63
2023/01/19 12:30:05;;;;;;;;;;;;;;;;;;5040332;28;19943;-63
2023/01/19 12:32:32;;;;;;;;;;;;;;;;;;5037418;28;19912;-66
2023/01/19 12:34:57;;;;;;;;;;;;;;;;;;5043531;28;20384;-65
2023/01/19 12:37:23;;;;;;;;;;;;;;;;;;5040123;28;20452;-59
2023/01/19 12:39:49;;;;;;;;;;;;;;;;;;5061019;28;19924;-65
2023/01/19 12:42:15;;;;;;;;;;;;;;;;;;5036760;28;19917;-65
2023/01/19 12:44:41;;;;;;;;;;;;;;;;;;5042799;28;19925;-64
2023/01/19 12:47:07;;;;;;;;;;;;;;;;;;5039144;28;20400;-64
2023/01/19 12:49:33;;;;;;;;;;;;;;;;;;5041826;28;19917;-62
2023/01/19 12:51:59;;;;;;;;;;;;;;;;;;5039029;28;19917;-66
2023/01/19 12:54:25;;;;;;;;;;;;;;;;;;5038931;28;19951;-66
2023/01/19 12:56:51;;;;;;;;;;;;;;;;;;5041301;28;19995;-66
2023/01/19 12:59:17;;;;;;;;;;;;;;;;;;5036915;28;19935;-65
2023/01/19 13:01:43;;;;;;;;;;;;;;;;;;5043691;28;19917;-66
2023/01/19 13:04:09;;;;;;;;;;;;;;;;;;5037993;28;19987;-67
2023/01/19 13:06:34;;;;;;;;;;;;;;;;;;5042231;28;19916;-65
2023/01/19 13:09:00;;;;;;;;;;;;;;;;;;5036729;28;19917;-66
2023/01/19 13:11:26;;;;;;;;;;;;;;;;;;5044364;28;20392;-64
2023/01/19 13:13:52;;;;;;;;;;;;;;;;;;5036161;28;19913;-63
2023/01/19 13:16:18;;;;;;;;;;;;;;;;;;5038971;28;20071;-65
2023/01/19 13:18:44;;;;;;;;;;;;;;;;;;5039114;28;19923;-65
2023/01/19 13:21:10;;;;;;;;;;;;;;;;;;5044098;28;19923;-65
2023/01/19 13:23:36;;;;;;;;;;;;;;;;;;5041457;28;19921;-66
2023/01/19 13:26:02;;;;;;;;;;;;;;;;;;5045219;28;19917;-62
2023/01/19 13:28:28;;;;;;;;;;;;;;;;;;5036064;28;19920;-60
2023/01/19 13:30:54;;;;;;;;;;;;;;;;;;5041448;28;19921;-61
2023/01/19 13:33:20;;;;;;;;;;;;;;;;;;5042191;28;19917;-63
2023/01/19 13:35:45;;;;;;;;;;;;;;;;;;5040444;28;19928;-63
2023/01/19 13:38:11;;;;;;;;;;;;;;;;;;5039255;28;19917;-65
2023/01/19 13:40:37;;;;;;;;;;;;;;;;;;5038519;28;19960;-64
2023/01/19 13:43:03;;;;;;;;;;;;;;;;;;5040525;28;19917;-64
2023/01/19 13:45:29;;;;;;;;;;;;;;;;;;5036506;28;19921;-62
2023/01/19 13:47:55;;;;;;;;;;;;;;;;;;5041744;28;19913;-63
2023/01/19 13:50:21;;;;;;;;;;;;;;;;;;5034269;28;19917;-65
2023/01/19 13:52:49;;;;;;;;;;;;;;;;;;5042461;28;19931;-64
2023/01/19 13:55:15;;;;;;;;;;;;;;;;;;5040738;28;20014;-65
2023/01/19 13:57:41;;;;;;;;;;;;;;;;;;5042420;28;20400;-66
2023/01/19 14:00:07;;;;;;;;;;;;;;;;;;5035575;28;19954;-63
2023/01/19 14:02:33;;;;;;;;;;;;;;;;;;5038716;28;19921;-64
2023/01/19 14:04:59;;;;;;;;;;;;;;;;;;5042598;28;19917;-64
2023/01/19 14:07:25;;;;;;;;;;;;;;;;;;5041248;28;19917;-63
2023/01/19 14:09:51;;;;;;;;;;;;;;;;;;5036211;28;19983;-63
2023/01/19 14:12:17;;;;;;;;;;;;;;;;;;5037318;28;19913;-64
2023/01/19 14:14:43;;;;;;;;;;;;;;;;;;5040375;28;19916;-65
2023/01/19 14:17:09;;;;;;;;;;;;;;;;;;5044020;28;20758;-64
2023/01/19 14:19:35;;;;;;;;;;;;;;;;;;5042322;28;19921;-63
2023/01/19 14:22:01;;;;;;;;;;;;;;;;;;5045017;28;19988;-65
2023/01/19 14:24:28;;;;;;;;;;;;;;;;;;5045836;28;19928;-64
2023/01/19 14:26:55;;;;;;;;;;;;;;;;;;5046753;28;19916;-63
2023/01/19 14:29:21;;;;;;;;;;;;;;;;;;5046153;28;19986;-64
2023/01/19 14:31:47;;;;;;;;;;;;;;;;;;5042007;28;19921;-65
2023/01/19 14:34:12;;;;;;;;;;;;;;;;;;5045870;28;19916;-65
2023/01/19 14:36:40;;;;;;;;;;;;;;;;;;5038768;28;20404;-66
2023/01/19 14:39:06;;;;;;;;;;;;;;;;;;5040612;28;19928;-66
2023/01/19 14:41:32;;;;;;;;;;;;;;;;;;5035391;28;19912;-67
2023/01/19 14:43:58;;;;;;;;;;;;;;;;;;5042982;28;20471;-65
2023/01/19 14:46:24;;;;;;;;;;;;;;;;;;5037412;28;19963;-67
2023/01/19 14:48:50;;;;;;;;;;;;;;;;;;5039733;28;19917;-67
2023/01/19 14:51:16;;;;;;;;;;;;;;;;;;5037808;28;19917;-66
2023/01/19 14:53:42;;;;;;;;;;;;;;;;;;5038619;28;19920;-65
2023/01/19 14:56:08;;;;;;;;;;;;;;;;;;5036888;28;20277;-64
2023/01/19 14:58:34;;;;;;;;;;;;;;;;;;5036310;28;20336;-66
2023/01/19 15:01:00;;;;;;;;;;;;;;;;;;5041182;28;20386;-65
2023/01/19 15:03:26;;;;;;;;;;;;;;;;;;5034611;28;19995;-63
2023/01/19 15:05:52;;;;;;;;;;;;;;;;;;5041828;28;20421;-66
2023/01/19 15:08:17;;;;;;;;;;;;;;;;;;5036049;28;19920;-66
2023/01/19 15:10:43;;;;;;;;;;;;;;;;;;5039697;28;19944;-68
2023/01/19 15:13:09;;;;;;;;;;;;;;;;;;5034741;28;19913;-66
2023/01/19 15:15:35;;;;;;;;;;;;;;;;;;5040979;28;19920;-66
2023/01/19 15:18:01;;;;;;;;;;;;;;;;;;5034922;28;20786;-67
2023/01/19 15:20:27;;;;;;;;;;;;;;;;;;5038685;28;20401;-67
2023/01/19 15:22:53;;;;;;;;;;;;;;;;;;5038607;28;19917;-66
2023/01/19 15:25:19;;;;;;;;;;;;;;;;;;5038721;28;20065;-65
2023/01/19 15:27:45;;;;;;;;;;;;;;;;;;5036620;28;20015;-67
2023/01/19 15:30:11;;;;;;;;;;;;;;;;;;5042140;28;19913;-67
2023/01/19 15:32:42;;;;;;;;;;;;;;;;;;5043070;28;19927;-66
2023/01/19 15:35:08;;;;;;;;;;;;;;;;;;5043238;28;19932;-66
2023/01/19 15:37:35;;;;;;;;;;;;;;;;;;5042058;28;19917;-66
2023/01/19 15:40:01;;;;;;;;;;;;;;;;;;5044194;28;19916;-67
2023/01/19 15:42:26;;;;;;;;;;;;;;;;;;5044446;28;19919;-67
2023/01/19 15:44:52;;;;;;;;;;;;;;;;;;5043137;28;20385;-67
2023/01/19 15:47:19;;;;;;;;;;;;;;;;;;5044494;28;20015;-66
2023/01/19 15:49:45;;;;;;;;;;;;;;;;;;5041038;28;20398;-66
2023/01/19 15:52:11;;;;;;;;;;;;;;;;;;5037251;28;19917;-67
2023/01/19 15:54:36;;;;;;;;;;;;;;;;;;5033018;28;19917;-66
2023/01/19 15:57:02;;;;;;;;;;;;;;;;;;5039153;28;20301;-62
2023/01/19 15:59:28;;;;;;;;;;;;;;;;;;5039668;28;19977;-67
2023/01/19 16:01:54;;;;;;;;;;;;;;;;;;5042302;28;20027;-68
2023/01/19 16:04:20;;;;;;;;;;;;;;;;;;5039378;28;19964;-67
2023/01/19 16:06:46;;;;;;;;;;;;;;;;;;5038833;28;19917;-66
2023/01/19 16:09:17;;;;;;;;;;;;;;;;;;5039638;28;20657;-65
2023/01/19 16:11:43;;;;;;;;;;;;;;;;;;5037730;28;19949;-67
2023/01/19 16:14:09;;;;;;;;;;;;;;;;;;5035399;28;19963;-67
2023/01/19 16:16:34;;;;;;;;;;;;;;;;;;5035653;28;20364;-67
2023/01/19 16:19:01;;;;;;;;;;;;;;;;;;5035878;28;20563;-66
2023/01/19 16:21:26;;;;;;;;;;;;;;;;;;5039474;28;19917;-66
2023/01/19 16:23:52;;;;;;;;;;;;;;;;;;5039543;28;19980;-68
2023/01/19 16:26:18;;;;;;;;;;;;;;;;;;5034768;28;19964;-66
2023/01/19 16:28:44;;;;;;;;;;;;;;;;;;5038693;28;19924;-67
2023/01/19 16:31:10;;;;;;;;;;;;;;;;;;5037673;28;19916;-66
2023/01/19 16:33:36;;;;;;;;;;;;;;;;;;5040634;28;20300;-66
2023/01/19 16:36:02;;;;;;;;;;;;;;;;;;5031833;28;19971;-63
2023/01/19 16:38:28;;;;;;;;;;;;;;;;;;5041532;28;20397;-65
2023/01/19 16:40:54;;;;;;;;;;;;;;;;;;5033281;28;19960;-65
2023/01/19 16:43:20;;;;;;;;;;;;;;;;;;5037530;28;19978;-65
2023/01/19 16:45:46;;;;;;;;;;;;;;;;;;5034226;28;19925;-65
2023/01/19 16:48:11;;;;;;;;;;;;;;;;;;5040210;28;19936;-66